sensor_id;sensor_type;location;lat;lon;timestamp;temperature;humidity
20422;DHT22;10370;53.102;18.034;2023-05-16T00:04:37;12.60;99.90
20422;DHT22;10370;53.102;18.034;2023-05-16T00:10:01;12.50;99.90
20422;DHT22;10370;53.102;18.034;2023-05-16T00:15:22;12.50;99.90
20422;DHT22;10370;53.102;18.034;2023-05-16T00:20:45;12.50;99.90
20422;DHT22;10370;53.102;18.034;2023-05-16T00:26:08;12.50;99.90
20422;DHT22;10370;53.102;18.034;2023-05-16T00:31:31;12.50;99.90
20422;DHT22;10370;53.102;18.034;2023-05-16T00:36:54;12.50;99.90
20422;DHT22;10370;53.102;18.034;2023-05-16T00:42:22;12.40;99.90
20422;DHT22;10370;53.102;18.034;2023-05-16T00:47:45;12.40;99.90
20422;DHT22;10370;53.102;18.034;2023-05-16T00:53:10;12.30;99.90
20422;DHT22;10370;53.102;18.034;2023-05-16T00:58:36;12.30;99.90
20422;DHT22;10370;53.102;18.034;2023-05-16T01:03:59;12.40;99.90
20422;DHT22;10370;53.102;18.034;2023-05-16T01:09:20;12.30;99.90
20422;DHT22;10370;53.102;18.034;2023-05-16T01:31:34;12.40;99.90
20422;DHT22;10370;53.102;18.034;2023-05-16T01:37:14;12.40;99.90
20422;DHT22;10370;53.102;18.034;2023-05-16T01:42:41;12.30;99.90
20422;DHT22;10370;53.102;18.034;2023-05-16T01:48:21;12.30;99.90
20422;DHT22;10370;53.102;18.034;2023-05-16T01:53:44;12.30;99.90
20422;DHT22;10370;53.102;18.034;2023-05-16T01:59:08;12.20;99.90
20422;DHT22;10370;53.102;18.034;2023-05-16T02:04:32;12.30;99.90
20422;DHT22;10370;53.102;18.034;2023-05-16T02:09:55;12.20;99.90
20422;DHT22;10370;53.102;18.034;2023-05-16T02:15:18;12.20;99.90
20422;DHT22;10370;53.102;18.034;2023-05-16T02:20:41;12.20;99.90
20422;DHT22;10370;53.102;18.034;2023-05-16T02:26:06;12.10;99.90
20422;DHT22;10370;53.102;18.034;2023-05-16T02:31:30;12.00;99.90
20422;DHT22;10370;53.102;18.034;2023-05-16T02:36:53;12.00;99.90
20422;DHT22;10370;53.102;18.034;2023-05-16T02:42:16;12.00;99.90
20422;DHT22;10370;53.102;18.034;2023-05-16T02:47:39;12.00;99.90
20422;DHT22;10370;53.102;18.034;2023-05-16T02:53:02;12.00;99.90
20422;DHT22;10370;53.102;18.034;2023-05-16T02:58:28;12.00;99.90
20422;DHT22;10370;53.102;18.034;2023-05-16T03:03:52;12.00;99.90
20422;DHT22;10370;53.102;18.034;2023-05-16T03:09:16;11.90;99.90
20422;DHT22;10370;53.102;18.034;2023-05-16T03:14:39;12.00;99.90
20422;DHT22;10370;53.102;18.034;2023-05-16T03:20:00;11.90;99.90
20422;DHT22;10370;53.102;18.034;2023-05-16T03:25:23;11.80;99.90
20422;DHT22;10370;53.102;18.034;2023-05-16T03:30:44;12.00;99.90
20422;DHT22;10370;53.102;18.034;2023-05-16T03:36:07;11.90;99.90
20422;DHT22;10370;53.102;18.034;2023-05-16T03:41:29;12.00;99.90
20422;DHT22;10370;53.102;18.034;2023-05-16T03:46:50;11.90;99.90
20422;DHT22;10370;53.102;18.034;2023-05-16T03:52:14;12.00;99.90
20422;DHT22;10370;53.102;18.034;2023-05-16T03:57:37;12.00;99.90
20422;DHT22;10370;53.102;18.034;2023-05-16T04:03:02;11.90;99.90
20422;DHT22;10370;53.102;18.034;2023-05-16T04:08:24;12.10;99.90
20422;DHT22;10370;53.102;18.034;2023-05-16T04:13:45;12.20;99.90
20422;DHT22;10370;53.102;18.034;2023-05-16T04:19:08;12.20;99.90
20422;DHT22;10370;53.102;18.034;2023-05-16T04:24:32;12.30;99.90
20422;DHT22;10370;53.102;18.034;2023-05-16T04:29:55;12.30;99.90
20422;DHT22;10370;53.102;18.034;2023-05-16T04:35:21;12.40;99.90
20422;DHT22;10370;53.102;18.034;2023-05-16T04:40:46;12.40;99.90
20422;DHT22;10370;53.102;18.034;2023-05-16T04:46:12;12.50;99.90
20422;DHT22;10370;53.102;18.034;2023-05-16T04:51:37;12.50;99.90
20422;DHT22;10370;53.102;18.034;2023-05-16T04:57:00;12.60;99.90
20422;DHT22;10370;53.102;18.034;2023-05-16T05:02:21;13.10;99.90
20422;DHT22;10370;53.102;18.034;2023-05-16T05:07:45;14.30;99.90
20422;DHT22;10370;53.102;18.034;2023-05-16T05:13:06;13.90;99.90
20422;DHT22;10370;53.102;18.034;2023-05-16T05:18:30;13.70;99.90
20422;DHT22;10370;53.102;18.034;2023-05-16T05:23:55;13.60;99.90
20422;DHT22;10370;53.102;18.034;2023-05-16T05:29:18;14.40;99.90
20422;DHT22;10370;53.102;18.034;2023-05-16T05:34:43;14.40;99.90
20422;DHT22;10370;53.102;18.034;2023-05-16T05:40:07;14.10;99.90
20422;DHT22;10370;53.102;18.034;2023-05-16T05:45:29;13.90;99.90
20422;DHT22;10370;53.102;18.034;2023-05-16T05:50:50;14.30;99.90
20422;DHT22;10370;53.102;18.034;2023-05-16T05:56:12;14.10;99.90
20422;DHT22;10370;53.102;18.034;2023-05-16T06:01:34;14.20;99.90
20422;DHT22;10370;53.102;18.034;2023-05-16T06:06:55;14.40;99.90
20422;DHT22;10370;53.102;18.034;2023-05-16T06:12:16;14.40;99.90
20422;DHT22;10370;53.102;18.034;2023-05-16T06:17:39;14.10;99.90
20422;DHT22;10370;53.102;18.034;2023-05-16T06:23:03;13.90;99.90
20422;DHT22;10370;53.102;18.034;2023-05-16T06:28:28;13.90;99.90
20422;DHT22;10370;53.102;18.034;2023-05-16T06:33:51;13.90;99.90
20422;DHT22;10370;53.102;18.034;2023-05-16T06:39:14;14.50;99.90
20422;DHT22;10370;53.102;18.034;2023-05-16T06:44:36;14.40;99.90
20422;DHT22;10370;53.102;18.034;2023-05-16T06:49:59;14.30;99.90
20422;DHT22;10370;53.102;18.034;2023-05-16T06:55:20;14.30;99.90
20422;DHT22;10370;53.102;18.034;2023-05-16T07:00:43;14.10;99.90
20422;DHT22;10370;53.102;18.034;2023-05-16T07:06:04;14.30;99.90
20422;DHT22;10370;53.102;18.034;2023-05-16T07:11:26;14.10;99.90
20422;DHT22;10370;53.102;18.034;2023-05-16T07:16:50;13.90;99.90
20422;DHT22;10370;53.102;18.034;2023-05-16T07:22:12;13.90;99.90
20422;DHT22;10370;53.102;18.034;2023-05-16T07:27:33;13.90;99.90
20422;DHT22;10370;53.102;18.034;2023-05-16T07:32:55;13.80;99.90
20422;DHT22;10370;53.102;18.034;2023-05-16T07:38:23;13.90;99.90
20422;DHT22;10370;53.102;18.034;2023-05-16T07:43:47;14.10;99.90
20422;DHT22;10370;53.102;18.034;2023-05-16T07:49:09;14.00;99.90
20422;DHT22;10370;53.102;18.034;2023-05-16T07:54:35;14.00;99.90
20422;DHT22;10370;53.102;18.034;2023-05-16T07:59:57;14.20;99.90
20422;DHT22;10370;53.102;18.034;2023-05-16T08:05:21;14.20;99.90
20422;DHT22;10370;53.102;18.034;2023-05-16T08:10:44;14.70;99.90
20422;DHT22;10370;53.102;18.034;2023-05-16T08:16:05;14.80;99.90
20422;DHT22;10370;53.102;18.034;2023-05-16T08:21:31;14.90;99.90
20422;DHT22;10370;53.102;18.034;2023-05-16T08:26:52;15.20;99.90
20422;DHT22;10370;53.102;18.034;2023-05-16T08:32:13;15.50;99.90
20422;DHT22;10370;53.102;18.034;2023-05-16T08:37:37;15.40;99.90
20422;DHT22;10370;53.102;18.034;2023-05-16T08:43:01;15.70;99.90
20422;DHT22;10370;53.102;18.034;2023-05-16T08:48:24;15.80;99.90
20422;DHT22;10370;53.102;18.034;2023-05-16T08:53:55;15.80;99.90
20422;DHT22;10370;53.102;18.034;2023-05-16T08:59:17;15.60;99.90
20422;DHT22;10370;53.102;18.034;2023-05-16T09:04:39;15.70;99.90
20422;DHT22;10370;53.102;18.034;2023-05-16T09:10:03;15.70;99.90
20422;DHT22;10370;53.102;18.034;2023-05-16T09:15:31;15.80;99.90
20422;DHT22;10370;53.102;18.034;2023-05-16T09:20:53;15.90;99.90
20422;DHT22;10370;53.102;18.034;2023-05-16T09:26:15;16.10;99.90
20422;DHT22;10370;53.102;18.034;2023-05-16T09:31:39;16.30;99.90
20422;DHT22;10370;53.102;18.034;2023-05-16T09:37:02;16.40;99.90
20422;DHT22;10370;53.102;18.034;2023-05-16T09:42:25;16.60;99.90
20422;DHT22;10370;53.102;18.034;2023-05-16T09:47:48;16.40;99.90
20422;DHT22;10370;53.102;18.034;2023-05-16T09:53:12;16.60;99.90
20422;DHT22;10370;53.102;18.034;2023-05-16T09:58:35;16.50;99.90
20422;DHT22;10370;53.102;18.034;2023-05-16T10:03:56;16.60;99.90
20422;DHT22;10370;53.102;18.034;2023-05-16T10:09:18;16.90;99.90
20422;DHT22;10370;53.102;18.034;2023-05-16T10:14:49;17.10;99.90
20422;DHT22;10370;53.102;18.034;2023-05-16T10:20:14;17.00;99.90
20422;DHT22;10370;53.102;18.034;2023-05-16T10:25:40;17.20;99.90
20422;DHT22;10370;53.102;18.034;2023-05-16T10:31:06;17.30;99.90
20422;DHT22;10370;53.102;18.034;2023-05-16T10:36:28;17.70;99.90
20422;DHT22;10370;53.102;18.034;2023-05-16T10:41:49;17.90;99.90
20422;DHT22;10370;53.102;18.034;2023-05-16T10:47:11;17.70;99.90
20422;DHT22;10370;53.102;18.034;2023-05-16T10:52:33;17.70;99.90
20422;DHT22;10370;53.102;18.034;2023-05-16T10:57:57;17.70;99.90
20422;DHT22;10370;53.102;18.034;2023-05-16T11:03:21;17.90;99.90
20422;DHT22;10370;53.102;18.034;2023-05-16T11:09:26;18.10;99.90
20422;DHT22;10370;53.102;18.034;2023-05-16T11:14:50;18.10;99.90
20422;DHT22;10370;53.102;18.034;2023-05-16T11:20:28;17.90;99.90
20422;DHT22;10370;53.102;18.034;2023-05-16T11:25:54;17.60;99.90
20422;DHT22;10370;53.102;18.034;2023-05-16T11:31:19;17.80;99.90
20422;DHT22;10370;53.102;18.034;2023-05-16T11:36:43;18.30;99.90
20422;DHT22;10370;53.102;18.034;2023-05-16T11:42:05;18.30;99.90
20422;DHT22;10370;53.102;18.034;2023-05-16T11:47:31;18.40;99.90
20422;DHT22;10370;53.102;18.034;2023-05-16T11:52:54;18.20;99.90
20422;DHT22;10370;53.102;18.034;2023-05-16T11:58:18;18.10;99.90
20422;DHT22;10370;53.102;18.034;2023-05-16T12:03:41;18.00;99.90
20422;DHT22;10370;53.102;18.034;2023-05-16T12:09:10;18.00;99.90
20422;DHT22;10370;53.102;18.034;2023-05-16T12:14:32;18.00;99.90
20422;DHT22;10370;53.102;18.034;2023-05-16T12:19:53;17.80;99.90
20422;DHT22;10370;53.102;18.034;2023-05-16T12:25:24;17.60;99.90
20422;DHT22;10370;53.102;18.034;2023-05-16T12:30:48;17.60;99.90
20422;DHT22;10370;53.102;18.034;2023-05-16T12:36:14;17.80;99.90
20422;DHT22;10370;53.102;18.034;2023-05-16T12:41:40;18.00;99.90
20422;DHT22;10370;53.102;18.034;2023-05-16T12:47:11;18.20;99.90
20422;DHT22;10370;53.102;18.034;2023-05-16T12:52:34;18.50;99.90
20422;DHT22;10370;53.102;18.034;2023-05-16T12:57:58;18.50;99.90
20422;DHT22;10370;53.102;18.034;2023-05-16T13:03:22;18.20;99.90
20422;DHT22;10370;53.102;18.034;2023-05-16T13:08:45;17.90;99.90
20422;DHT22;10370;53.102;18.034;2023-05-16T13:14:13;17.70;99.90
20422;DHT22;10370;53.102;18.034;2023-05-16T13:19:34;18.00;99.90
20422;DHT22;10370;53.102;18.034;2023-05-16T13:24:57;18.20;99.90
20422;DHT22;10370;53.102;18.034;2023-05-16T13:30:23;18.10;99.90
20422;DHT22;10370;53.102;18.034;2023-05-16T13:35:46;17.80;99.90
20422;DHT22;10370;53.102;18.034;2023-05-16T13:41:10;18.00;99.90
20422;DHT22;10370;53.102;18.034;2023-05-16T13:46:35;18.30;99.90
20422;DHT22;10370;53.102;18.034;2023-05-16T13:51:59;18.10;99.90
20422;DHT22;10370;53.102;18.034;2023-05-16T13:57:21;17.80;99.90
20422;DHT22;10370;53.102;18.034;2023-05-16T14:02:45;17.80;99.90
20422;DHT22;10370;53.102;18.034;2023-05-16T14:08:09;17.70;99.90
20422;DHT22;10370;53.102;18.034;2023-05-16T14:13:32;17.60;99.90
20422;DHT22;10370;53.102;18.034;2023-05-16T14:18:53;17.60;99.90
20422;DHT22;10370;53.102;18.034;2023-05-16T14:24:16;17.80;99.90
20422;DHT22;10370;53.102;18.034;2023-05-16T14:29:40;17.60;99.90
20422;DHT22;10370;53.102;18.034;2023-05-16T14:35:04;17.60;99.90
20422;DHT22;10370;53.102;18.034;2023-05-16T14:40:28;17.50;99.90
20422;DHT22;10370;53.102;18.034;2023-05-16T14:45:54;17.60;99.90
20422;DHT22;10370;53.102;18.034;2023-05-16T14:51:18;17.60;99.90
20422;DHT22;10370;53.102;18.034;2023-05-16T14:56:40;17.50;99.90
20422;DHT22;10370;53.102;18.034;2023-05-16T15:02:01;17.30;99.90
20422;DHT22;10370;53.102;18.034;2023-05-16T15:07:24;17.20;99.90
20422;DHT22;10370;53.102;18.034;2023-05-16T15:12:46;17.20;99.90
20422;DHT22;10370;53.102;18.034;2023-05-16T15:18:10;17.20;99.90
20422;DHT22;10370;53.102;18.034;2023-05-16T15:23:34;17.20;99.90
20422;DHT22;10370;53.102;18.034;2023-05-16T15:28:56;17.20;99.90
20422;DHT22;10370;53.102;18.034;2023-05-16T15:34:20;17.20;99.90
20422;DHT22;10370;53.102;18.034;2023-05-16T15:39:41;17.20;99.90
20422;DHT22;10370;53.102;18.034;2023-05-16T15:45:05;17.00;99.90
20422;DHT22;10370;53.102;18.034;2023-05-16T15:50:31;17.00;99.90
20422;DHT22;10370;53.102;18.034;2023-05-16T15:55:54;16.80;99.90
20422;DHT22;10370;53.102;18.034;2023-05-16T16:01:18;16.80;99.90
20422;DHT22;10370;53.102;18.034;2023-05-16T16:06:42;16.60;99.90
20422;DHT22;10370;53.102;18.034;2023-05-16T16:12:04;16.50;99.90
20422;DHT22;10370;53.102;18.034;2023-05-16T16:17:28;16.30;99.90
20422;DHT22;10370;53.102;18.034;2023-05-16T16:22:52;16.20;99.90
20422;DHT22;10370;53.102;18.034;2023-05-16T16:28:16;16.10;99.90
20422;DHT22;10370;53.102;18.034;2023-05-16T16:33:38;16.10;99.90
20422;DHT22;10370;53.102;18.034;2023-05-16T16:39:02;16.00;99.90
20422;DHT22;10370;53.102;18.034;2023-05-16T16:44:28;15.90;99.90
20422;DHT22;10370;53.102;18.034;2023-05-16T16:49:53;15.80;99.90
20422;DHT22;10370;53.102;18.034;2023-05-16T16:55:14;15.70;99.90
20422;DHT22;10370;53.102;18.034;2023-05-16T17:00:36;15.60;99.90
20422;DHT22;10370;53.102;18.034;2023-05-16T17:06:00;15.40;99.90
20422;DHT22;10370;53.102;18.034;2023-05-16T17:11:23;15.30;99.90
20422;DHT22;10370;53.102;18.034;2023-05-16T17:16:47;15.20;99.90
20422;DHT22;10370;53.102;18.034;2023-05-16T17:22:11;15.00;99.90
20422;DHT22;10370;53.102;18.034;2023-05-16T17:27:35;15.00;99.90
20422;DHT22;10370;53.102;18.034;2023-05-16T17:33:01;14.90;99.90
20422;DHT22;10370;53.102;18.034;2023-05-16T17:38:25;14.80;99.90
20422;DHT22;10370;53.102;18.034;2023-05-16T17:43:52;14.70;99.90
20422;DHT22;10370;53.102;18.034;2023-05-16T17:49:16;14.40;99.90
20422;DHT22;10370;53.102;18.034;2023-05-16T17:54:43;14.30;99.90
20422;DHT22;10370;53.102;18.034;2023-05-16T18:00:07;14.10;99.90
20422;DHT22;10370;53.102;18.034;2023-05-16T18:05:32;14.10;99.90
20422;DHT22;10370;53.102;18.034;2023-05-16T18:10:59;14.00;99.90
20422;DHT22;10370;53.102;18.034;2023-05-16T18:16:24;13.70;99.90
20422;DHT22;10370;53.102;18.034;2023-05-16T18:21:49;13.60;99.90
20422;DHT22;10370;53.102;18.034;2023-05-16T18:27:14;13.50;99.90
20422;DHT22;10370;53.102;18.034;2023-05-16T18:32:36;13.40;99.90
20422;DHT22;10370;53.102;18.034;2023-05-16T18:38:05;13.40;99.90
20422;DHT22;10370;53.102;18.034;2023-05-16T18:43:42;13.40;99.90
20422;DHT22;10370;53.102;18.034;2023-05-16T18:49:07;13.40;99.90
20422;DHT22;10370;53.102;18.034;2023-05-16T18:54:33;13.30;99.90
20422;DHT22;10370;53.102;18.034;2023-05-16T18:59:58;13.20;99.90
20422;DHT22;10370;53.102;18.034;2023-05-16T19:05:24;13.20;99.90
20422;DHT22;10370;53.102;18.034;2023-05-16T19:11:07;13.20;99.90
20422;DHT22;10370;53.102;18.034;2023-05-16T19:16:32;13.10;99.90
20422;DHT22;10370;53.102;18.034;2023-05-16T19:21:57;13.10;99.90
20422;DHT22;10370;53.102;18.034;2023-05-16T19:27:23;13.00;99.90
20422;DHT22;10370;53.102;18.034;2023-05-16T19:32:46;13.00;99.90
20422;DHT22;10370;53.102;18.034;2023-05-16T19:38:10;12.90;99.90
20422;DHT22;10370;53.102;18.034;2023-05-16T19:43:32;12.90;99.90
20422;DHT22;10370;53.102;18.034;2023-05-16T19:48:55;12.90;99.90
20422;DHT22;10370;53.102;18.034;2023-05-16T19:54:18;12.90;99.90
20422;DHT22;10370;53.102;18.034;2023-05-16T19:59:42;12.80;99.90
20422;DHT22;10370;53.102;18.034;2023-05-16T20:05:06;12.80;99.90
20422;DHT22;10370;53.102;18.034;2023-05-16T20:10:30;12.70;99.90
20422;DHT22;10370;53.102;18.034;2023-05-16T20:15:56;12.70;99.90
20422;DHT22;10370;53.102;18.034;2023-05-16T20:21:21;12.70;99.90
20422;DHT22;10370;53.102;18.034;2023-05-16T20:26:43;12.70;99.90
20422;DHT22;10370;53.102;18.034;2023-05-16T20:32:08;12.70;99.90
20422;DHT22;10370;53.102;18.034;2023-05-16T20:37:30;12.70;99.90
20422;DHT22;10370;53.102;18.034;2023-05-16T20:42:53;12.70;99.90
20422;DHT22;10370;53.102;18.034;2023-05-16T20:48:20;12.70;99.90
20422;DHT22;10370;53.102;18.034;2023-05-16T20:53:47;12.70;99.90
20422;DHT22;10370;53.102;18.034;2023-05-16T20:59:13;12.70;99.90
20422;DHT22;10370;53.102;18.034;2023-05-16T21:04:37;12.70;99.90
20422;DHT22;10370;53.102;18.034;2023-05-16T21:09:58;12.60;99.90
20422;DHT22;10370;53.102;18.034;2023-05-16T21:15:22;12.60;99.90
20422;DHT22;10370;53.102;18.034;2023-05-16T21:20:47;12.50;99.90
20422;DHT22;10370;53.102;18.034;2023-05-16T21:26:14;12.40;99.90
20422;DHT22;10370;53.102;18.034;2023-05-16T21:31:38;12.50;99.90
20422;DHT22;10370;53.102;18.034;2023-05-16T21:36:59;12.50;99.90
20422;DHT22;10370;53.102;18.034;2023-05-16T21:42:22;12.50;99.90
20422;DHT22;10370;53.102;18.034;2023-05-16T21:47:44;12.40;99.90
20422;DHT22;10370;53.102;18.034;2023-05-16T21:53:08;12.40;99.90
20422;DHT22;10370;53.102;18.034;2023-05-16T21:58:32;12.40;99.90
20422;DHT22;10370;53.102;18.034;2023-05-16T22:03:54;12.30;99.90
20422;DHT22;10370;53.102;18.034;2023-05-16T22:09:19;12.30;99.90
20422;DHT22;10370;53.102;18.034;2023-05-16T22:14:42;12.20;99.90
20422;DHT22;10370;53.102;18.034;2023-05-16T22:20:09;12.10;99.90
20422;DHT22;10370;53.102;18.034;2023-05-16T22:25:31;12.00;99.90
20422;DHT22;10370;53.102;18.034;2023-05-16T22:30:57;12.00;99.90
20422;DHT22;10370;53.102;18.034;2023-05-16T22:36:24;12.00;99.90
20422;DHT22;10370;53.102;18.034;2023-05-16T22:41:49;11.90;99.90
20422;DHT22;10370;53.102;18.034;2023-05-16T22:47:10;11.90;99.90
20422;DHT22;10370;53.102;18.034;2023-05-16T22:52:38;11.80;99.90
20422;DHT22;10370;53.102;18.034;2023-05-16T22:58:03;11.70;99.90
20422;DHT22;10370;53.102;18.034;2023-05-16T23:03:29;11.70;99.90
20422;DHT22;10370;53.102;18.034;2023-05-16T23:08:56;11.60;99.90
20422;DHT22;10370;53.102;18.034;2023-05-16T23:14:19;11.70;99.90
20422;DHT22;10370;53.102;18.034;2023-05-16T23:19:42;11.70;99.90
20422;DHT22;10370;53.102;18.034;2023-05-16T23:25:05;11.70;99.90
20422;DHT22;10370;53.102;18.034;2023-05-16T23:30:30;11.50;99.90
20422;DHT22;10370;53.102;18.034;2023-05-16T23:35:56;11.50;99.90
20422;DHT22;10370;53.102;18.034;2023-05-16T23:41:18;11.50;99.90
20422;DHT22;10370;53.102;18.034;2023-05-16T23:46:41;11.50;99.90
20422;DHT22;10370;53.102;18.034;2023-05-16T23:52:04;11.40;99.90
20422;DHT22;10370;53.102;18.034;2023-05-16T23:57:30;11.30;99.90
